sensor_id;sensor_type;location;lat;lon;timestamp;P1;durP1;ratioP1;P2;durP2;ratioP2
48263;SDS011;34086;51.076;13.722;2023-02-21T00:00:45;4.88;;;4.20;;
48263;SDS011;34086;51.076;13.722;2023-02-21T00:02:04;7.78;;;4.97;;
48263;SDS011;34086;51.076;13.722;2023-02-21T00:03:24;8.38;;;4.85;;
48263;SDS011;34086;51.076;13.722;2023-02-21T00:04:43;7.53;;;4.85;;
48263;SDS011;34086;51.076;13.722;2023-02-21T00:06:02;6.90;;;5.30;;
48263;SDS011;34086;51.076;13.722;2023-02-21T00:07:21;8.00;;;5.13;;
48263;SDS011;34086;51.076;13.722;2023-02-21T00:08:41;6.37;;;4.97;;
48263;SDS011;34086;51.076;13.722;2023-02-21T00:10:00;7.07;;;5.13;;
48263;SDS011;34086;51.076;13.722;2023-02-21T00:11:19;7.85;;;5.32;;
48263;SDS011;34086;51.076;13.722;2023-02-21T00:12:39;6.80;;;4.65;;
48263;SDS011;34086;51.076;13.722;2023-02-21T00:13:58;6.30;;;4.70;;
48263;SDS011;34086;51.076;13.722;2023-02-21T00:15:17;8.13;;;5.22;;
48263;SDS011;34086;51.076;13.722;2023-02-21T00:16:36;6.85;;;4.80;;
48263;SDS011;34086;51.076;13.722;2023-02-21T00:17:55;6.55;;;4.82;;
48263;SDS011;34086;51.076;13.722;2023-02-21T00:19:15;6.50;;;5.00;;
48263;SDS011;34086;51.076;13.722;2023-02-21T00:20:34;8.48;;;4.90;;
48263;SDS011;34086;51.076;13.722;2023-02-21T00:21:53;6.85;;;4.88;;
48263;SDS011;34086;51.076;13.722;2023-02-21T00:23:12;7.00;;;5.20;;
48263;SDS011;34086;51.076;13.722;2023-02-21T00:24:32;6.80;;;4.75;;
48263;SDS011;34086;51.076;13.722;2023-02-21T00:25:51;8.05;;;5.28;;
48263;SDS011;34086;51.076;13.722;2023-02-21T00:27:10;9.05;;;5.80;;
48263;SDS011;34086;51.076;13.722;2023-02-21T00:28:31;7.25;;;5.35;;
48263;SDS011;34086;51.076;13.722;2023-02-21T00:29:50;7.90;;;5.50;;
48263;SDS011;34086;51.076;13.722;2023-02-21T00:31:10;8.02;;;5.40;;
48263;SDS011;34086;51.076;13.722;2023-02-21T00:32:29;8.10;;;4.88;;
48263;SDS011;34086;51.076;13.722;2023-02-21T00:33:48;7.68;;;5.10;;
48263;SDS011;34086;51.076;13.722;2023-02-21T00:35:08;9.25;;;5.07;;
48263;SDS011;34086;51.076;13.722;2023-02-21T00:36:28;8.30;;;5.40;;
48263;SDS011;34086;51.076;13.722;2023-02-21T00:37:50;8.00;;;5.72;;
48263;SDS011;34086;51.076;13.722;2023-02-21T00:39:10;7.40;;;5.40;;
48263;SDS011;34086;51.076;13.722;2023-02-21T00:40:29;8.80;;;5.40;;
48263;SDS011;34086;51.076;13.722;2023-02-21T00:41:48;8.30;;;5.15;;
48263;SDS011;34086;51.076;13.722;2023-02-21T00:43:08;8.98;;;5.47;;
48263;SDS011;34086;51.076;13.722;2023-02-21T00:44:27;7.97;;;5.32;;
48263;SDS011;34086;51.076;13.722;2023-02-21T00:45:47;6.57;;;4.80;;
48263;SDS011;34086;51.076;13.722;2023-02-21T00:47:06;7.60;;;5.05;;
48263;SDS011;34086;51.076;13.722;2023-02-21T00:48:26;7.78;;;5.10;;
48263;SDS011;34086;51.076;13.722;2023-02-21T00:49:45;7.72;;;5.20;;
48263;SDS011;34086;51.076;13.722;2023-02-21T00:51:04;6.55;;;4.70;;
48263;SDS011;34086;51.076;13.722;2023-02-21T00:52:23;7.88;;;5.15;;
48263;SDS011;34086;51.076;13.722;2023-02-21T00:53:43;6.20;;;4.75;;
48263;SDS011;34086;51.076;13.722;2023-02-21T00:55:02;6.90;;;4.93;;
48263;SDS011;34086;51.076;13.722;2023-02-21T00:56:22;6.65;;;4.53;;
48263;SDS011;34086;51.076;13.722;2023-02-21T00:57:41;7.00;;;5.00;;
48263;SDS011;34086;51.076;13.722;2023-02-21T00:59:00;7.15;;;4.60;;
48263;SDS011;34086;51.076;13.722;2023-02-21T01:00:21;6.60;;;4.90;;
48263;SDS011;34086;51.076;13.722;2023-02-21T01:01:41;6.03;;;4.60;;
48263;SDS011;34086;51.076;13.722;2023-02-21T01:03:00;6.78;;;4.72;;
48263;SDS011;34086;51.076;13.722;2023-02-21T01:04:19;6.68;;;4.70;;
48263;SDS011;34086;51.076;13.722;2023-02-21T01:05:40;6.25;;;4.35;;
48263;SDS011;34086;51.076;13.722;2023-02-21T01:07:02;6.57;;;4.55;;
48263;SDS011;34086;51.076;13.722;2023-02-21T01:08:21;7.18;;;5.00;;
48263;SDS011;34086;51.076;13.722;2023-02-21T01:09:40;6.82;;;4.72;;
48263;SDS011;34086;51.076;13.722;2023-02-21T01:11:00;7.30;;;4.30;;
48263;SDS011;34086;51.076;13.722;2023-02-21T01:12:19;5.93;;;4.60;;
48263;SDS011;34086;51.076;13.722;2023-02-21T01:13:38;7.32;;;4.68;;
48263;SDS011;34086;51.076;13.722;2023-02-21T01:14:57;5.65;;;4.45;;
48263;SDS011;34086;51.076;13.722;2023-02-21T01:16:17;7.90;;;4.47;;
48263;SDS011;34086;51.076;13.722;2023-02-21T01:17:36;8.10;;;4.75;;
48263;SDS011;34086;51.076;13.722;2023-02-21T01:18:56;6.35;;;4.63;;
48263;SDS011;34086;51.076;13.722;2023-02-21T01:20:15;6.18;;;4.32;;
48263;SDS011;34086;51.076;13.722;2023-02-21T01:21:34;6.43;;;4.55;;
48263;SDS011;34086;51.076;13.722;2023-02-21T01:22:53;7.57;;;4.47;;
48263;SDS011;34086;51.076;13.722;2023-02-21T01:24:15;5.97;;;4.47;;
48263;SDS011;34086;51.076;13.722;2023-02-21T01:25:34;5.90;;;4.30;;
48263;SDS011;34086;51.076;13.722;2023-02-21T01:26:53;7.07;;;4.53;;
48263;SDS011;34086;51.076;13.722;2023-02-21T01:28:12;6.35;;;4.45;;
48263;SDS011;34086;51.076;13.722;2023-02-21T01:29:31;6.68;;;4.50;;
48263;SDS011;34086;51.076;13.722;2023-02-21T01:30:51;5.72;;;4.13;;
48263;SDS011;34086;51.076;13.722;2023-02-21T01:32:11;6.75;;;4.50;;
48263;SDS011;34086;51.076;13.722;2023-02-21T01:33:35;6.70;;;4.47;;
48263;SDS011;34086;51.076;13.722;2023-02-21T01:34:56;6.38;;;4.32;;
48263;SDS011;34086;51.076;13.722;2023-02-21T01:36:16;7.40;;;4.55;;
48263;SDS011;34086;51.076;13.722;2023-02-21T01:37:35;5.82;;;4.32;;
48263;SDS011;34086;51.076;13.722;2023-02-21T01:38:54;6.82;;;4.47;;
48263;SDS011;34086;51.076;13.722;2023-02-21T01:40:14;7.07;;;4.70;;
48263;SDS011;34086;51.076;13.722;2023-02-21T01:41:35;6.07;;;4.57;;
48263;SDS011;34086;51.076;13.722;2023-02-21T01:42:54;6.85;;;4.60;;
48263;SDS011;34086;51.076;13.722;2023-02-21T01:45:53;6.32;;;4.50;;
48263;SDS011;34086;51.076;13.722;2023-02-21T01:47:13;6.50;;;4.43;;
48263;SDS011;34086;51.076;13.722;2023-02-21T01:48:32;6.80;;;4.65;;
48263;SDS011;34086;51.076;13.722;2023-02-21T01:49:54;6.95;;;4.57;;
48263;SDS011;34086;51.076;13.722;2023-02-21T01:51:16;6.07;;;4.30;;
48263;SDS011;34086;51.076;13.722;2023-02-21T01:52:37;8.55;;;4.93;;
48263;SDS011;34086;51.076;13.722;2023-02-21T01:53:57;7.82;;;4.13;;
48263;SDS011;34086;51.076;13.722;2023-02-21T01:55:17;5.80;;;4.43;;
48263;SDS011;34086;51.076;13.722;2023-02-21T01:56:37;6.03;;;4.28;;
48263;SDS011;34086;51.076;13.722;2023-02-21T01:57:56;6.00;;;4.60;;
48263;SDS011;34086;51.076;13.722;2023-02-21T01:59:16;5.65;;;4.40;;
48263;SDS011;34086;51.076;13.722;2023-02-21T02:00:38;6.50;;;4.70;;
48263;SDS011;34086;51.076;13.722;2023-02-21T02:02:01;6.50;;;4.55;;
48263;SDS011;34086;51.076;13.722;2023-02-21T02:03:23;6.85;;;4.80;;
48263;SDS011;34086;51.076;13.722;2023-02-21T02:04:43;7.47;;;4.82;;
48263;SDS011;34086;51.076;13.722;2023-02-21T02:06:06;6.60;;;4.60;;
48263;SDS011;34086;51.076;13.722;2023-02-21T02:07:27;6.70;;;4.70;;
48263;SDS011;34086;51.076;13.722;2023-02-21T02:08:47;6.20;;;4.70;;
48263;SDS011;34086;51.076;13.722;2023-02-21T02:10:09;6.78;;;4.97;;
48263;SDS011;34086;51.076;13.722;2023-02-21T02:14:54;7.50;;;4.80;;
48263;SDS011;34086;51.076;13.722;2023-02-21T02:16:07;7.43;;;4.65;;
48263;SDS011;34086;51.076;13.722;2023-02-21T02:17:56;7.65;;;4.63;;
48263;SDS011;34086;51.076;13.722;2023-02-21T02:25:31;5.78;;;4.40;;
48263;SDS011;34086;51.076;13.722;2023-02-21T02:28:39;6.63;;;4.80;;
48263;SDS011;34086;51.076;13.722;2023-02-21T02:30:11;5.80;;;4.78;;
48263;SDS011;34086;51.076;13.722;2023-02-21T02:31:20;6.28;;;4.65;;
48263;SDS011;34086;51.076;13.722;2023-02-21T02:32:36;6.25;;;4.68;;
48263;SDS011;34086;51.076;13.722;2023-02-21T02:35:31;6.30;;;4.50;;
48263;SDS011;34086;51.076;13.722;2023-02-21T02:36:38;6.15;;;4.75;;
48263;SDS011;34086;51.076;13.722;2023-02-21T02:37:51;5.95;;;4.38;;
48263;SDS011;34086;51.076;13.722;2023-02-21T02:39:01;5.55;;;4.18;;
48263;SDS011;34086;51.076;13.722;2023-02-21T02:41:58;6.55;;;4.47;;
48263;SDS011;34086;51.076;13.722;2023-02-21T02:43:21;6.50;;;4.63;;
48263;SDS011;34086;51.076;13.722;2023-02-21T02:44:34;6.75;;;4.50;;
48263;SDS011;34086;51.076;13.722;2023-02-21T02:45:52;6.13;;;4.60;;
48263;SDS011;34086;51.076;13.722;2023-02-21T02:46:57;7.35;;;4.40;;
48263;SDS011;34086;51.076;13.722;2023-02-21T02:48:06;8.75;;;4.47;;
48263;SDS011;34086;51.076;13.722;2023-02-21T02:49:18;5.78;;;4.40;;
48263;SDS011;34086;51.076;13.722;2023-02-21T02:50:21;5.97;;;4.50;;
48263;SDS011;34086;51.076;13.722;2023-02-21T02:51:26;6.63;;;4.43;;
48263;SDS011;34086;51.076;13.722;2023-02-21T02:52:30;6.78;;;4.60;;
48263;SDS011;34086;51.076;13.722;2023-02-21T02:53:31;6.78;;;4.20;;
48263;SDS011;34086;51.076;13.722;2023-02-21T02:54:33;7.35;;;4.88;;
48263;SDS011;34086;51.076;13.722;2023-02-21T02:55:36;6.25;;;4.20;;
48263;SDS011;34086;51.076;13.722;2023-02-21T02:56:47;6.68;;;4.22;;
48263;SDS011;34086;51.076;13.722;2023-02-21T02:57:48;7.18;;;4.47;;
48263;SDS011;34086;51.076;13.722;2023-02-21T02:58:53;6.35;;;4.50;;
48263;SDS011;34086;51.076;13.722;2023-02-21T03:00:00;8.68;;;4.30;;
48263;SDS011;34086;51.076;13.722;2023-02-21T03:02:47;6.65;;;4.60;;
48263;SDS011;34086;51.076;13.722;2023-02-21T03:06:41;6.40;;;4.55;;
48263;SDS011;34086;51.076;13.722;2023-02-21T03:09:24;5.80;;;4.45;;
48263;SDS011;34086;51.076;13.722;2023-02-21T03:10:43;7.65;;;4.80;;
48263;SDS011;34086;51.076;13.722;2023-02-21T03:11:58;7.25;;;4.80;;
48263;SDS011;34086;51.076;13.722;2023-02-21T03:13:21;5.88;;;4.20;;
48263;SDS011;34086;51.076;13.722;2023-02-21T03:14:36;6.05;;;4.32;;
48263;SDS011;34086;51.076;13.722;2023-02-21T03:15:53;6.70;;;4.97;;
48263;SDS011;34086;51.076;13.722;2023-02-21T03:17:03;7.13;;;4.85;;
48263;SDS011;34086;51.076;13.722;2023-02-21T03:18:23;7.57;;;5.28;;
48263;SDS011;34086;51.076;13.722;2023-02-21T03:19:47;6.30;;;4.28;;
48263;SDS011;34086;51.076;13.722;2023-02-21T03:20:52;7.68;;;4.65;;
48263;SDS011;34086;51.076;13.722;2023-02-21T03:21:57;6.85;;;4.57;;
48263;SDS011;34086;51.076;13.722;2023-02-21T03:23:01;6.30;;;4.85;;
48263;SDS011;34086;51.076;13.722;2023-02-21T03:24:04;6.50;;;4.93;;
48263;SDS011;34086;51.076;13.722;2023-02-21T03:25:07;7.10;;;4.82;;
48263;SDS011;34086;51.076;13.722;2023-02-21T03:26:10;6.78;;;4.80;;
48263;SDS011;34086;51.076;13.722;2023-02-21T03:27:17;7.50;;;5.03;;
48263;SDS011;34086;51.076;13.722;2023-02-21T03:28:31;6.43;;;4.90;;
48263;SDS011;34086;51.076;13.722;2023-02-21T03:29:34;7.03;;;4.93;;
48263;SDS011;34086;51.076;13.722;2023-02-21T03:30:37;6.28;;;4.82;;
48263;SDS011;34086;51.076;13.722;2023-02-21T03:31:49;8.35;;;5.47;;
48263;SDS011;34086;51.076;13.722;2023-02-21T03:32:57;6.80;;;4.97;;
48263;SDS011;34086;51.076;13.722;2023-02-21T03:33:58;8.30;;;4.95;;
48263;SDS011;34086;51.076;13.722;2023-02-21T03:35:01;6.60;;;5.00;;
48263;SDS011;34086;51.076;13.722;2023-02-21T03:36:03;7.28;;;5.22;;
48263;SDS011;34086;51.076;13.722;2023-02-21T03:37:05;7.57;;;5.22;;
48263;SDS011;34086;51.076;13.722;2023-02-21T03:38:07;6.53;;;4.75;;
48263;SDS011;34086;51.076;13.722;2023-02-21T03:39:09;7.60;;;5.35;;
48263;SDS011;34086;51.076;13.722;2023-02-21T03:40:12;7.50;;;5.07;;
48263;SDS011;34086;51.076;13.722;2023-02-21T03:41:21;6.93;;;4.78;;
48263;SDS011;34086;51.076;13.722;2023-02-21T03:42:22;8.80;;;5.00;;
48263;SDS011;34086;51.076;13.722;2023-02-21T03:43:23;6.72;;;5.13;;
48263;SDS011;34086;51.076;13.722;2023-02-21T03:44:30;6.90;;;5.20;;
48263;SDS011;34086;51.076;13.722;2023-02-21T03:45:32;6.55;;;4.78;;
48263;SDS011;34086;51.076;13.722;2023-02-21T03:46:39;10.57;;;5.35;;
48263;SDS011;34086;51.076;13.722;2023-02-21T03:47:39;9.57;;;5.60;;
48263;SDS011;34086;51.076;13.722;2023-02-21T03:48:40;7.43;;;5.07;;
48263;SDS011;34086;51.076;13.722;2023-02-21T03:49:54;8.13;;;5.20;;
48263;SDS011;34086;51.076;13.722;2023-02-21T03:50:54;7.03;;;5.10;;
48263;SDS011;34086;51.076;13.722;2023-02-21T03:51:58;8.32;;;5.43;;
48263;SDS011;34086;51.076;13.722;2023-02-21T03:52:59;7.10;;;4.97;;
48263;SDS011;34086;51.076;13.722;2023-02-21T03:53:59;7.40;;;5.05;;
48263;SDS011;34086;51.076;13.722;2023-02-21T03:55:07;8.88;;;5.55;;
48263;SDS011;34086;51.076;13.722;2023-02-21T03:56:09;7.25;;;5.10;;
48263;SDS011;34086;51.076;13.722;2023-02-21T03:57:28;8.50;;;5.50;;
48263;SDS011;34086;51.076;13.722;2023-02-21T03:58:29;7.55;;;5.40;;
48263;SDS011;34086;51.076;13.722;2023-02-21T03:59:29;8.77;;;5.70;;
48263;SDS011;34086;51.076;13.722;2023-02-21T04:00:31;7.72;;;5.53;;
48263;SDS011;34086;51.076;13.722;2023-02-21T04:01:31;8.68;;;5.55;;
48263;SDS011;34086;51.076;13.722;2023-02-21T04:02:32;7.65;;;5.35;;
48263;SDS011;34086;51.076;13.722;2023-02-21T04:03:33;8.40;;;5.57;;
48263;SDS011;34086;51.076;13.722;2023-02-21T04:04:36;8.55;;;5.57;;
48263;SDS011;34086;51.076;13.722;2023-02-21T04:05:42;8.15;;;5.43;;
48263;SDS011;34086;51.076;13.722;2023-02-21T04:06:43;7.93;;;5.65;;
48263;SDS011;34086;51.076;13.722;2023-02-21T04:07:45;6.97;;;5.07;;
48263;SDS011;34086;51.076;13.722;2023-02-21T04:08:46;9.85;;;5.60;;
48263;SDS011;34086;51.076;13.722;2023-02-21T04:09:47;7.63;;;5.55;;
48263;SDS011;34086;51.076;13.722;2023-02-21T04:10:52;7.88;;;5.47;;
48263;SDS011;34086;51.076;13.722;2023-02-21T04:11:56;7.32;;;5.43;;
48263;SDS011;34086;51.076;13.722;2023-02-21T04:12:56;7.50;;;5.47;;
48263;SDS011;34086;51.076;13.722;2023-02-21T04:13:57;7.70;;;5.68;;
48263;SDS011;34086;51.076;13.722;2023-02-21T04:14:58;8.43;;;5.88;;
48263;SDS011;34086;51.076;13.722;2023-02-21T04:15:58;7.57;;;5.43;;
48263;SDS011;34086;51.076;13.722;2023-02-21T04:16:59;8.25;;;5.63;;
48263;SDS011;34086;51.076;13.722;2023-02-21T04:18:00;9.20;;;6.05;;
48263;SDS011;34086;51.076;13.722;2023-02-21T04:19:01;9.57;;;6.43;;
48263;SDS011;34086;51.076;13.722;2023-02-21T04:20:02;9.13;;;5.93;;
48263;SDS011;34086;51.076;13.722;2023-02-21T04:21:05;8.68;;;5.72;;
48263;SDS011;34086;51.076;13.722;2023-02-21T04:22:06;8.77;;;5.80;;
48263;SDS011;34086;51.076;13.722;2023-02-21T04:23:07;8.10;;;5.78;;
48263;SDS011;34086;51.076;13.722;2023-02-21T04:24:09;9.15;;;6.65;;
48263;SDS011;34086;51.076;13.722;2023-02-21T04:25:10;9.77;;;6.88;;
48263;SDS011;34086;51.076;13.722;2023-02-21T04:26:23;10.05;;;6.78;;
48263;SDS011;34086;51.076;13.722;2023-02-21T04:27:23;9.18;;;6.30;;
48263;SDS011;34086;51.076;13.722;2023-02-21T04:28:29;10.23;;;7.15;;
48263;SDS011;34086;51.076;13.722;2023-02-21T04:29:29;10.07;;;6.28;;
48263;SDS011;34086;51.076;13.722;2023-02-21T04:30:30;9.07;;;6.40;;
48263;SDS011;34086;51.076;13.722;2023-02-21T04:31:31;10.15;;;7.20;;
48263;SDS011;34086;51.076;13.722;2023-02-21T04:32:34;10.05;;;7.10;;
48263;SDS011;34086;51.076;13.722;2023-02-21T04:33:40;10.38;;;6.97;;
48263;SDS011;34086;51.076;13.722;2023-02-21T04:34:43;10.38;;;7.15;;
48263;SDS011;34086;51.076;13.722;2023-02-21T04:35:44;10.40;;;6.95;;
48263;SDS011;34086;51.076;13.722;2023-02-21T04:36:54;10.18;;;7.20;;
48263;SDS011;34086;51.076;13.722;2023-02-21T04:37:54;10.27;;;7.25;;
48263;SDS011;34086;51.076;13.722;2023-02-21T04:38:57;9.88;;;7.20;;
48263;SDS011;34086;51.076;13.722;2023-02-21T04:39:58;11.02;;;7.25;;
48263;SDS011;34086;51.076;13.722;2023-02-21T04:40:58;10.57;;;7.15;;
48263;SDS011;34086;51.076;13.722;2023-02-21T04:41:59;10.93;;;6.95;;
48263;SDS011;34086;51.076;13.722;2023-02-21T04:42:59;10.65;;;7.32;;
48263;SDS011;34086;51.076;13.722;2023-02-21T04:44:00;11.55;;;7.43;;
48263;SDS011;34086;51.076;13.722;2023-02-21T04:45:05;10.15;;;7.03;;
48263;SDS011;34086;51.076;13.722;2023-02-21T04:46:06;12.55;;;7.43;;
48263;SDS011;34086;51.076;13.722;2023-02-21T04:47:06;12.20;;;7.50;;
48263;SDS011;34086;51.076;13.722;2023-02-21T04:48:07;11.32;;;7.75;;
48263;SDS011;34086;51.076;13.722;2023-02-21T04:49:08;11.30;;;7.82;;
48263;SDS011;34086;51.076;13.722;2023-02-21T04:50:11;11.02;;;7.60;;
48263;SDS011;34086;51.076;13.722;2023-02-21T04:51:12;11.13;;;7.70;;
48263;SDS011;34086;51.076;13.722;2023-02-21T04:52:13;10.43;;;7.38;;
48263;SDS011;34086;51.076;13.722;2023-02-21T04:53:14;11.52;;;7.78;;
48263;SDS011;34086;51.076;13.722;2023-02-21T04:54:15;11.52;;;7.50;;
48263;SDS011;34086;51.076;13.722;2023-02-21T04:55:15;10.88;;;7.70;;
48263;SDS011;34086;51.076;13.722;2023-02-21T04:56:20;10.43;;;7.47;;
48263;SDS011;34086;51.076;13.722;2023-02-21T04:57:21;12.68;;;7.90;;
48263;SDS011;34086;51.076;13.722;2023-02-21T04:58:22;13.07;;;7.95;;
48263;SDS011;34086;51.076;13.722;2023-02-21T04:59:23;12.75;;;7.85;;
48263;SDS011;34086;51.076;13.722;2023-02-21T05:00:23;11.00;;;7.65;;
48263;SDS011;34086;51.076;13.722;2023-02-21T05:01:27;13.23;;;8.52;;
48263;SDS011;34086;51.076;13.722;2023-02-21T05:02:29;12.48;;;8.13;;
48263;SDS011;34086;51.076;13.722;2023-02-21T05:03:30;12.68;;;8.05;;
48263;SDS011;34086;51.076;13.722;2023-02-21T05:04:30;12.07;;;8.45;;
48263;SDS011;34086;51.076;13.722;2023-02-21T05:05:31;12.38;;;8.50;;
48263;SDS011;34086;51.076;13.722;2023-02-21T05:06:32;12.90;;;8.27;;
48263;SDS011;34086;51.076;13.722;2023-02-21T05:07:32;12.73;;;8.77;;
48263;SDS011;34086;51.076;13.722;2023-02-21T05:08:34;13.07;;;8.70;;
48263;SDS011;34086;51.076;13.722;2023-02-21T05:09:35;12.10;;;8.63;;
48263;SDS011;34086;51.076;13.722;2023-02-21T05:10:35;12.10;;;8.88;;
48263;SDS011;34086;51.076;13.722;2023-02-21T05:11:36;16.45;;;8.80;;
48263;SDS011;34086;51.076;13.722;2023-02-21T05:12:37;11.98;;;8.15;;
48263;SDS011;34086;51.076;13.722;2023-02-21T05:13:38;13.27;;;8.60;;
48263;SDS011;34086;51.076;13.722;2023-02-21T05:14:39;13.00;;;8.38;;
48263;SDS011;34086;51.076;13.722;2023-02-21T05:15:40;12.80;;;8.50;;
48263;SDS011;34086;51.076;13.722;2023-02-21T05:16:41;11.73;;;8.40;;
48263;SDS011;34086;51.076;13.722;2023-02-21T05:17:42;13.15;;;9.25;;
48263;SDS011;34086;51.076;13.722;2023-02-21T05:18:44;11.63;;;8.10;;
48263;SDS011;34086;51.076;13.722;2023-02-21T05:19:46;13.10;;;8.88;;
48263;SDS011;34086;51.076;13.722;2023-02-21T05:20:47;12.82;;;8.40;;
48263;SDS011;34086;51.076;13.722;2023-02-21T05:21:50;12.77;;;8.57;;
48263;SDS011;34086;51.076;13.722;2023-02-21T05:22:51;15.32;;;8.40;;
48263;SDS011;34086;51.076;13.722;2023-02-21T05:23:52;14.75;;;9.02;;
48263;SDS011;34086;51.076;13.722;2023-02-21T05:24:55;11.52;;;8.20;;
48263;SDS011;34086;51.076;13.722;2023-02-21T05:25:56;14.27;;;8.80;;
48263;SDS011;34086;51.076;13.722;2023-02-21T05:26:57;12.50;;;8.50;;
48263;SDS011;34086;51.076;13.722;2023-02-21T05:27:58;12.00;;;8.60;;
48263;SDS011;34086;51.076;13.722;2023-02-21T05:28:58;14.73;;;8.85;;
48263;SDS011;34086;51.076;13.722;2023-02-21T05:29:59;13.98;;;8.75;;
48263;SDS011;34086;51.076;13.722;2023-02-21T05:30:59;13.00;;;8.45;;
48263;SDS011;34086;51.076;13.722;2023-02-21T05:32:00;13.32;;;8.60;;
48263;SDS011;34086;51.076;13.722;2023-02-21T05:33:01;12.63;;;8.90;;
48263;SDS011;34086;51.076;13.722;2023-02-21T05:34:02;14.73;;;9.45;;
48263;SDS011;34086;51.076;13.722;2023-02-21T05:35:02;12.20;;;8.23;;
48263;SDS011;34086;51.076;13.722;2023-02-21T05:36:03;13.82;;;8.88;;
48263;SDS011;34086;51.076;13.722;2023-02-21T05:37:04;12.18;;;8.00;;
48263;SDS011;34086;51.076;13.722;2023-02-21T05:38:05;12.48;;;8.85;;
48263;SDS011;34086;51.076;13.722;2023-02-21T05:39:06;14.45;;;8.88;;
48263;SDS011;34086;51.076;13.722;2023-02-21T05:40:08;13.18;;;8.52;;
48263;SDS011;34086;51.076;13.722;2023-02-21T05:41:10;14.00;;;8.48;;
48263;SDS011;34086;51.076;13.722;2023-02-21T05:42:11;13.00;;;8.45;;
48263;SDS011;34086;51.076;13.722;2023-02-21T05:43:12;12.93;;;8.50;;
48263;SDS011;34086;51.076;13.722;2023-02-21T05:44:13;13.70;;;8.98;;
48263;SDS011;34086;51.076;13.722;2023-02-21T05:45:14;14.23;;;8.68;;
48263;SDS011;34086;51.076;13.722;2023-02-21T05:46:24;11.98;;;8.43;;
48263;SDS011;34086;51.076;13.722;2023-02-21T05:47:30;15.30;;;9.30;;
48263;SDS011;34086;51.076;13.722;2023-02-21T05:48:32;13.10;;;8.82;;
48263;SDS011;34086;51.076;13.722;2023-02-21T05:49:33;14.80;;;9.10;;
48263;SDS011;34086;51.076;13.722;2023-02-21T05:50:33;13.25;;;9.40;;
48263;SDS011;34086;51.076;13.722;2023-02-21T05:51:35;13.73;;;8.93;;
48263;SDS011;34086;51.076;13.722;2023-02-21T05:52:37;14.95;;;9.10;;
48263;SDS011;34086;51.076;13.722;2023-02-21T05:53:38;12.60;;;8.55;;
48263;SDS011;34086;51.076;13.722;2023-02-21T05:54:38;15.68;;;9.90;;
48263;SDS011;34086;51.076;13.722;2023-02-21T05:55:39;14.15;;;9.23;;
48263;SDS011;34086;51.076;13.722;2023-02-21T05:56:40;13.13;;;9.00;;
48263;SDS011;34086;51.076;13.722;2023-02-21T05:57:41;14.52;;;9.43;;
48263;SDS011;34086;51.076;13.722;2023-02-21T05:58:42;14.85;;;10.18;;
48263;SDS011;34086;51.076;13.722;2023-02-21T05:59:42;15.13;;;9.13;;
48263;SDS011;34086;51.076;13.722;2023-02-21T06:00:43;14.63;;;9.73;;
48263;SDS011;34086;51.076;13.722;2023-02-21T06:01:44;15.55;;;9.32;;
48263;SDS011;34086;51.076;13.722;2023-02-21T06:02:45;15.90;;;9.82;;
48263;SDS011;34086;51.076;13.722;2023-02-21T06:03:46;14.18;;;9.35;;
48263;SDS011;34086;51.076;13.722;2023-02-21T06:04:46;13.98;;;9.48;;
48263;SDS011;34086;51.076;13.722;2023-02-21T06:05:48;14.85;;;9.50;;
48263;SDS011;34086;51.076;13.722;2023-02-21T06:06:48;15.48;;;9.77;;
48263;SDS011;34086;51.076;13.722;2023-02-21T06:07:49;15.57;;;9.60;;
48263;SDS011;34086;51.076;13.722;2023-02-21T06:08:50;14.43;;;10.00;;
48263;SDS011;34086;51.076;13.722;2023-02-21T06:09:51;13.88;;;9.77;;
48263;SDS011;34086;51.076;13.722;2023-02-21T06:10:51;16.23;;;9.77;;
48263;SDS011;34086;51.076;13.722;2023-02-21T06:11:54;15.82;;;10.25;;
48263;SDS011;34086;51.076;13.722;2023-02-21T06:12:56;15.15;;;9.98;;
48263;SDS011;34086;51.076;13.722;2023-02-21T06:13:56;13.30;;;9.43;;
48263;SDS011;34086;51.076;13.722;2023-02-21T06:14:58;12.98;;;9.13;;
48263;SDS011;34086;51.076;13.722;2023-02-21T06:15:58;14.05;;;9.90;;
48263;SDS011;34086;51.076;13.722;2023-02-21T06:16:59;15.90;;;10.18;;
48263;SDS011;34086;51.076;13.722;2023-02-21T06:18:01;15.23;;;9.80;;
48263;SDS011;34086;51.076;13.722;2023-02-21T06:19:02;14.90;;;9.40;;
48263;SDS011;34086;51.076;13.722;2023-02-21T06:20:05;14.75;;;9.98;;
48263;SDS011;34086;51.076;13.722;2023-02-21T06:21:06;14.80;;;9.88;;
48263;SDS011;34086;51.076;13.722;2023-02-21T06:22:07;13.85;;;9.68;;
48263;SDS011;34086;51.076;13.722;2023-02-21T06:23:07;15.68;;;9.45;;
48263;SDS011;34086;51.076;13.722;2023-02-21T06:24:08;15.07;;;9.77;;
48263;SDS011;34086;51.076;13.722;2023-02-21T06:25:10;15.32;;;9.95;;
48263;SDS011;34086;51.076;13.722;2023-02-21T06:26:11;17.02;;;10.27;;
48263;SDS011;34086;51.076;13.722;2023-02-21T06:27:11;13.80;;;9.02;;
48263;SDS011;34086;51.076;13.722;2023-02-21T06:28:12;15.55;;;10.10;;
48263;SDS011;34086;51.076;13.722;2023-02-21T06:29:12;15.10;;;9.95;;
48263;SDS011;34086;51.076;13.722;2023-02-21T06:30:13;17.13;;;10.13;;
48263;SDS011;34086;51.076;13.722;2023-02-21T06:31:15;14.70;;;10.27;;
48263;SDS011;34086;51.076;13.722;2023-02-21T06:32:16;15.77;;;10.75;;
48263;SDS011;34086;51.076;13.722;2023-02-21T06:33:17;15.57;;;10.27;;
48263;SDS011;34086;51.076;13.722;2023-02-21T06:34:17;15.07;;;10.05;;
48263;SDS011;34086;51.076;13.722;2023-02-21T06:35:18;17.10;;;10.07;;
48263;SDS011;34086;51.076;13.722;2023-02-21T06:36:23;15.55;;;10.73;;
48263;SDS011;34086;51.076;13.722;2023-02-21T06:37:24;16.23;;;9.63;;
48263;SDS011;34086;51.076;13.722;2023-02-21T06:38:25;16.05;;;10.15;;
48263;SDS011;34086;51.076;13.722;2023-02-21T06:39:25;16.60;;;10.13;;
48263;SDS011;34086;51.076;13.722;2023-02-21T06:40:26;15.40;;;10.50;;
48263;SDS011;34086;51.076;13.722;2023-02-21T06:41:27;16.98;;;10.20;;
48263;SDS011;34086;51.076;13.722;2023-02-21T06:42:29;15.85;;;9.80;;
48263;SDS011;34086;51.076;13.722;2023-02-21T06:43:29;16.27;;;10.52;;
48263;SDS011;34086;51.076;13.722;2023-02-21T06:44:30;16.55;;;10.05;;
48263;SDS011;34086;51.076;13.722;2023-02-21T06:45:30;15.60;;;10.10;;
48263;SDS011;34086;51.076;13.722;2023-02-21T06:46:31;15.32;;;10.00;;
48263;SDS011;34086;51.076;13.722;2023-02-21T06:47:31;14.38;;;9.60;;
48263;SDS011;34086;51.076;13.722;2023-02-21T06:48:32;15.68;;;10.07;;
48263;SDS011;34086;51.076;13.722;2023-02-21T06:49:34;16.15;;;10.00;;
48263;SDS011;34086;51.076;13.722;2023-02-21T06:50:34;16.45;;;10.43;;
48263;SDS011;34086;51.076;13.722;2023-02-21T06:51:35;16.02;;;10.23;;
48263;SDS011;34086;51.076;13.722;2023-02-21T06:52:39;15.32;;;10.23;;
48263;SDS011;34086;51.076;13.722;2023-02-21T06:53:40;17.33;;;10.77;;
48263;SDS011;34086;51.076;13.722;2023-02-21T06:54:41;17.95;;;10.82;;
48263;SDS011;34086;51.076;13.722;2023-02-21T06:55:41;16.38;;;10.07;;
48263;SDS011;34086;51.076;13.722;2023-02-21T06:56:42;16.15;;;10.15;;
48263;SDS011;34086;51.076;13.722;2023-02-21T06:57:43;16.13;;;10.45;;
48263;SDS011;34086;51.076;13.722;2023-02-21T06:58:44;15.63;;;9.95;;
48263;SDS011;34086;51.076;13.722;2023-02-21T06:59:44;15.45;;;9.52;;
48263;SDS011;34086;51.076;13.722;2023-02-21T07:00:45;16.02;;;10.27;;
48263;SDS011;34086;51.076;13.722;2023-02-21T07:01:45;17.90;;;10.35;;
48263;SDS011;34086;51.076;13.722;2023-02-21T07:02:46;15.98;;;10.43;;
48263;SDS011;34086;51.076;13.722;2023-02-21T07:03:46;15.27;;;9.80;;